Time;durP1;ratioP1;P1;durP2;ratioP2;P2;SDS_P1;SDS_P2;PMS_P1;PMS_P2;Temp;Humidity;BMP_temperature;BMP_pressure;BME280_temperature;BME280_humidity;BME280_pressure;Samples;Min_cycle;Max_cycle;Signal;HPM_P1;HPM_P2
2022/06/02 00:00:12;;;;;;;5.32;3.55;;;;;;;;;;4177152;34;20128;-64
2022/06/02 00:03:01;;;;;;;8.13;3.95;;;;;;;;;;4164392;34;20122;-64
2022/06/02 00:35:27;;;;;;;7.70;4.47;;;;;;;;;;4186159;34;20238;-61
2022/06/02 00:38:04;;;;;;;8.20;4.57;;;;;;;;;;4177399;34;20106;-61
2022/06/02 00:40:32;;;;;;;5.95;4.53;;;;;;;;;;4167204;34;20582;-62
2022/06/02 00:43:13;;;;;;;6.45;4.40;;;;;;;;;;4177178;34;20138;-62
2022/06/02 00:45:44;;;;;;;6.55;4.95;;;;;;;;;;4190555;34;20551;-62
2022/06/02 00:48:12;;;;;;;5.15;3.50;;;;;;;;;;4190546;34;20175;-62
2022/06/02 00:50:48;;;;;;;11.63;4.97;;;;;;;;;;4190231;34;20629;-61
2022/06/02 00:57:31;;;;;;;12.57;6.15;;;;;;;;;;4133738;34;20206;-62
2022/06/02 01:00:41;;;;;;;8.43;4.78;;;;;;;;;;4176438;34;20122;-62
2022/06/02 01:03:19;;;;;;;8.00;4.65;;;;;;;;;;4157266;34;20474;-62
2022/06/02 01:06:23;;;;;;;8.18;5.25;;;;;;;;;;4178578;34;20581;-62
2022/06/02 01:09:14;;;;;;;8.30;5.00;;;;;;;;;;4164122;34;20181;-62
2022/06/02 01:12:04;;;;;;;15.57;4.78;;;;;;;;;;4192374;34;20086;-62
2022/06/02 01:14:55;;;;;;;6.68;4.70;;;;;;;;;;4191003;34;20116;-62
2022/06/02 01:17:35;;;;;;;12.90;4.78;;;;;;;;;;4190720;34;20117;-62
2022/06/02 01:20:13;;;;;;;6.12;4.50;;;;;;;;;;4192400;34;20097;-62
2022/06/02 01:23:10;;;;;;;9.65;4.55;;;;;;;;;;4192100;34;20249;-61
2022/06/02 01:26:06;;;;;;;7.20;4.22;;;;;;;;;;4192099;34;20567;-69
2022/06/02 01:28:57;;;;;;;7.50;4.70;;;;;;;;;;4190881;34;20133;-68
2022/06/02 01:31:45;;;;;;;7.45;4.40;;;;;;;;;;4192252;34;20201;-68
2022/06/02 01:34:20;;;;;;;12.27;5.10;;;;;;;;;;4191996;34;20603;-69
2022/06/02 01:36:54;;;;;;;9.32;5.90;;;;;;;;;;4185620;34;20091;-69
2022/06/02 01:39:33;;;;;;;10.35;5.05;;;;;;;;;;4177143;34;20474;-69
2022/06/02 01:42:01;;;;;;;7.43;4.93;;;;;;;;;;4176822;34;20149;-69
2022/06/02 01:44:55;;;;;;;7.53;4.80;;;;;;;;;;4178413;34;20114;-69
2022/06/02 01:47:34;;;;;;;7.78;4.82;;;;;;;;;;4178157;34;20210;-69
2022/06/02 01:50:12;;;;;;;12.32;5.15;;;;;;;;;;4176603;34;20181;-69
2022/06/02 01:53:02;;;;;;;8.13;4.90;;;;;;;;;;4178270;34;20113;-68
2022/06/02 01:55:54;;;;;;;5.78;4.85;;;;;;;;;;4178223;34;20202;-69
2022/06/02 01:58:38;;;;;;;8.40;4.80;;;;;;;;;;4178492;34;20150;-69
2022/06/02 02:01:39;;;;;;;9.90;5.07;;;;;;;;;;4165519;34;20111;-69
2022/06/02 02:04:29;;;;;;;12.82;4.80;;;;;;;;;;4178033;34;20114;-69
2022/06/02 02:07:10;;;;;;;6.95;5.53;;;;;;;;;;4176755;34;20109;-69
2022/06/02 02:09:54;;;;;;;11.65;5.18;;;;;;;;;;4176605;34;20513;-68
2022/06/02 02:12:45;;;;;;;12.70;4.70;;;;;;;;;;4163241;34;20141;-69
2022/06/02 02:15:29;;;;;;;23.00;11.40;;;;;;;;;;4151382;34;20153;-68
2022/06/02 02:18:04;;;;;;;13.50;5.05;;;;;;;;;;4164653;34;20115;-70
2022/06/02 02:20:42;;;;;;;11.73;5.15;;;;;;;;;;4164247;34;20090;-69
2022/06/02 02:23:26;;;;;;;12.93;4.80;;;;;;;;;;4164558;34;20114;-69
2022/06/02 02:26:12;;;;;;;11.68;6.00;;;;;;;;;;4164212;34;20111;-70
2022/06/02 02:29:04;;;;;;;8.05;4.72;;;;;;;;;;4151844;34;20119;-70
2022/06/02 02:31:39;;;;;;;21.37;6.72;;;;;;;;;;4164468;34;20205;-69
2022/06/02 02:34:29;;;;;;;15.10;5.90;;;;;;;;;;4164077;34;20119;-70
2022/06/02 02:37:12;;;;;;;10.55;5.37;;;;;;;;;;4152782;34;20594;-68
2022/06/02 02:40:04;;;;;;;12.15;5.30;;;;;;;;;;4176276;34;20106;-68
2022/06/02 02:42:37;;;;;;;14.85;6.18;;;;;;;;;;4177864;34;20202;-69
2022/06/02 02:45:08;;;;;;;12.88;6.40;;;;;;;;;;4165199;34;20124;-68
2022/06/02 02:47:50;;;;;;;7.03;5.03;;;;;;;;;;4177833;34;20117;-69
2022/06/02 02:50:22;;;;;;;12.18;5.43;;;;;;;;;;4176524;34;20219;-69
2022/06/02 02:52:55;;;;;;;20.25;5.40;;;;;;;;;;4177526;34;20121;-69
2022/06/02 02:55:28;;;;;;;9.65;4.95;;;;;;;;;;4164759;34;20111;-69
2022/06/02 02:58:03;;;;;;;10.07;5.03;;;;;;;;;;4164894;34;20134;-68
2022/06/02 03:01:01;;;;;;;8.38;5.20;;;;;;;;;;4165090;34;20532;-68
2022/06/02 03:03:43;;;;;;;13.52;5.90;;;;;;;;;;4165086;34;20197;-68
2022/06/02 03:06:23;;;;;;;11.55;4.93;;;;;;;;;;4176331;34;20190;-68
2022/06/02 03:09:27;;;;;;;10.85;4.62;;;;;;;;;;4177872;34;20174;-68
2022/06/02 03:11:53;;;;;;;6.55;4.28;;;;;;;;;;4164667;34;20106;-68
2022/06/02 03:14:43;;;;;;;14.13;4.60;;;;;;;;;;4177403;34;20114;-68
2022/06/02 03:17:20;;;;;;;9.75;4.22;;;;;;;;;;4177427;34;20103;-68
2022/06/02 03:20:30;;;;;;;9.43;4.07;;;;;;;;;;4175997;34;20502;-70
2022/06/02 03:23:07;;;;;;;7.53;4.20;;;;;;;;;;4148051;34;20193;-69
2022/06/02 03:25:41;;;;;;;5.43;3.90;;;;;;;;;;4162011;34;20506;-70
2022/06/02 03:28:28;;;;;;;7.65;3.53;;;;;;;;;;4164299;34;20193;-68
2022/06/02 03:31:00;;;;;;;8.32;4.07;;;;;;;;;;4177279;34;20123;-68
2022/06/02 03:34:01;;;;;;;11.75;4.60;;;;;;;;;;4177621;34;20138;-68
2022/06/02 03:36:39;;;;;;;6.40;3.90;;;;;;;;;;4163282;34;20130;-68
2022/06/02 03:39:06;;;;;;;8.88;3.50;;;;;;;;;;4177361;34;20122;-68
2022/06/02 03:42:06;;;;;;;8.07;3.67;;;;;;;;;;4164832;34;20556;-68
2022/06/02 03:44:34;;;;;;;7.82;2.95;;;;;;;;;;4177280;34;20143;-68
2022/06/02 03:47:28;;;;;;;5.10;3.20;;;;;;;;;;4177044;34;20515;-68
2022/06/02 03:50:31;;;;;;;3.33;2.70;;;;;;;;;;4177383;34;20556;-68
2022/06/02 03:53:04;;;;;;;13.20;4.30;;;;;;;;;;4177474;34;20242;-68
2022/06/02 03:55:58;;;;;;;5.55;3.10;;;;;;;;;;4176945;34;20106;-68
2022/06/02 03:58:47;;;;;;;4.55;2.80;;;;;;;;;;4177426;34;20125;-68
2022/06/02 04:01:18;;;;;;;4.15;3.03;;;;;;;;;;4176998;34;20191;-67
2022/06/02 04:04:08;;;;;;;7.55;3.20;;;;;;;;;;4153145;34;20122;-67
2022/06/02 04:06:46;;;;;;;9.52;3.80;;;;;;;;;;4177271;34;20206;-68
2022/06/02 04:09:27;;;;;;;3.83;2.60;;;;;;;;;;4164151;34;20119;-67
2022/06/02 04:15:03;;;;;;;6.65;3.10;;;;;;;;;;4176699;34;20545;-68
2022/06/02 04:17:41;;;;;;;4.22;2.83;;;;;;;;;;4176890;34;20111;-69
2022/06/02 04:20:52;;;;;;;4.18;3.03;;;;;;;;;;4177119;34;20114;-68
2022/06/02 04:23:28;;;;;;;7.15;3.00;;;;;;;;;;4169621;34;20130;-68
2022/06/02 04:26:06;;;;;;;5.40;3.03;;;;;;;;;;4177399;34;20145;-69
2022/06/02 04:28:44;;;;;;;7.57;3.35;;;;;;;;;;4177356;34;20117;-69
2022/06/02 04:31:18;;;;;;;6.35;2.70;;;;;;;;;;4176810;34;20114;-68
2022/06/02 04:34:29;;;;;;;10.23;2.85;;;;;;;;;;4175728;34;20455;-67
2022/06/02 04:37:07;;;;;;;4.72;2.75;;;;;;;;;;4163724;34;20122;-68
2022/06/02 04:39:42;;;;;;;9.02;2.80;;;;;;;;;;4175327;34;20197;-68
2022/06/02 04:42:30;;;;;;;6.62;2.87;;;;;;;;;;4163928;34;20118;-68
2022/06/02 04:44:58;;;;;;;7.00;3.25;;;;;;;;;;4176633;34;20511;-68
2022/06/02 04:47:27;;;;;;;8.30;3.00;;;;;;;;;;4164008;34;20103;-68
2022/06/02 04:50:04;;;;;;;2.97;2.50;;;;;;;;;;4176814;34;20125;-68
2022/06/02 04:52:54;;;;;;;2.65;2.42;;;;;;;;;;4164139;34;20097;-68
2022/06/02 04:55:54;;;;;;;4.07;2.47;;;;;;;;;;4163855;34;20137;-68
2022/06/02 04:58:43;;;;;;;3.80;2.60;;;;;;;;;;4176897;34;20110;-68
2022/06/02 05:01:40;;;;;;;4.57;2.45;;;;;;;;;;4176515;34;20098;-68
2022/06/02 05:04:14;;;;;;;3.53;2.30;;;;;;;;;;4176749;34;20122;-68
2022/06/02 05:06:46;;;;;;;3.28;2.53;;;;;;;;;;4176473;34;20278;-69
2022/06/02 05:09:18;;;;;;;3.05;2.30;;;;;;;;;;4163848;34;20494;-68
2022/06/02 05:11:50;;;;;;;3.83;2.50;;;;;;;;;;4163597;34;20202;-69
2022/06/02 05:14:34;;;;;;;4.62;2.60;;;;;;;;;;4176473;34;20531;-69
2022/06/02 05:17:23;;;;;;;3.42;2.60;;;;;;;;;;4176118;34;20121;-68
2022/06/02 05:20:04;;;;;;;3.00;2.45;;;;;;;;;;4174877;34;20102;-69
2022/06/02 05:22:50;;;;;;;5.12;2.60;;;;;;;;;;4176546;34;20207;-69
2022/06/02 05:25:22;;;;;;;4.70;2.47;;;;;;;;;;4176306;34;20109;-69
2022/06/02 05:27:48;;;;;;;4.47;2.70;;;;;;;;;;4176451;34;20145;-69
2022/06/02 05:30:14;;;;;;;3.35;2.55;;;;;;;;;;4176426;34;20102;-69
2022/06/02 05:33:01;;;;;;;2.42;2.22;;;;;;;;;;4163478;34;20118;-70
2022/06/02 05:35:59;;;;;;;2.87;2.58;;;;;;;;;;4176081;34;20194;-69
2022/06/02 05:38:37;;;;;;;7.32;2.35;;;;;;;;;;4169638;34;20505;-70
2022/06/02 05:41:22;;;;;;;3.28;2.53;;;;;;;;;;4176321;34;20121;-70
2022/06/02 05:44:11;;;;;;;3.37;2.30;;;;;;;;;;4163588;34;20133;-69
2022/06/02 05:46:57;;;;;;;7.10;2.70;;;;;;;;;;4176326;34;20173;-69
2022/06/02 05:49:32;;;;;;;6.00;2.50;;;;;;;;;;4176369;34;20122;-68
2022/06/02 05:52:23;;;;;;;4.07;2.55;;;;;;;;;;4178151;34;20475;-68
2022/06/02 05:55:04;;;;;;;3.67;2.33;;;;;;;;;;4178065;34;20118;-68
2022/06/02 05:57:37;;;;;;;4.60;2.42;;;;;;;;;;4178187;34;20172;-69
2022/06/02 06:00:05;;;;;;;3.87;2.58;;;;;;;;;;4178158;34;20129;-69
2022/06/02 06:02:43;;;;;;;4.75;2.53;;;;;;;;;;4165426;34;20500;-69
2022/06/02 06:05:13;;;;;;;6.53;2.87;;;;;;;;;;4178035;34;20143;-69
2022/06/02 06:07:54;;;;;;;3.15;2.30;;;;;;;;;;4178349;34;20095;-70
2022/06/02 06:10:29;;;;;;;3.40;2.30;;;;;;;;;;4176696;34;20145;-69
2022/06/02 06:13:10;;;;;;;4.20;2.40;;;;;;;;;;4178381;34;20185;-68
2022/06/02 06:15:50;;;;;;;6.90;2.58;;;;;;;;;;4178193;34;20093;-69
2022/06/02 06:18:21;;;;;;;3.60;2.30;;;;;;;;;;4178225;34;20194;-68
2022/06/02 06:21:05;;;;;;;4.75;2.70;;;;;;;;;;4176585;34;20203;-68
2022/06/02 06:23:52;;;;;;;3.47;2.78;;;;;;;;;;4165271;34;20115;-68
2022/06/02 06:26:49;;;;;;;6.30;2.97;;;;;;;;;;4178199;34;20202;-68
2022/06/02 06:29:44;;;;;;;7.20;2.50;;;;;;;;;;4165138;34;20538;-69
2022/06/02 06:32:17;;;;;;;3.08;2.58;;;;;;;;;;4165050;34;20137;-69
2022/06/02 06:35:14;;;;;;;3.87;2.85;;;;;;;;;;4177968;34;20218;-69
2022/06/02 06:38:07;;;;;;;4.15;2.60;;;;;;;;;;4152210;34;20139;-69
2022/06/02 06:40:51;;;;;;;4.90;3.00;;;;;;;;;;4177719;34;20117;-69
2022/06/02 06:43:24;;;;;;;3.35;3.00;;;;;;;;;;4178157;34;20217;-69
2022/06/02 06:46:04;;;;;;;2.58;2.37;;;;;;;;;;4164848;34;20128;-68
2022/06/02 06:48:38;;;;;;;2.90;2.55;;;;;;;;;;4177913;34;21026;-69
2022/06/02 06:51:15;;;;;;;3.15;2.80;;;;;;;;;;4177648;34;20129;-69
2022/06/02 06:53:57;;;;;;;3.80;2.17;;;;;;;;;;4177771;34;20668;-69
2022/06/02 06:56:30;;;;;;;1.67;1.58;;;;;;;;;;4177832;34;20105;-69
2022/06/02 06:59:13;;;;;;;4.72;2.83;;;;;;;;;;4176345;34;20531;-68
2022/06/02 07:02:05;;;;;;;4.12;2.30;;;;;;;;;;4177716;34;20106;-70
2022/06/02 07:04:46;;;;;;;6.15;2.60;;;;;;;;;;4176409;34;20136;-70
2022/06/02 07:07:39;;;;;;;3.72;2.92;;;;;;;;;;4177490;34;20206;-70
2022/06/02 07:10:27;;;;;;;4.05;2.75;;;;;;;;;;4164564;34;20129;-69
2022/06/02 07:13:20;;;;;;;3.45;2.45;;;;;;;;;;4176316;34;20134;-70
2022/06/02 07:15:48;;;;;;;2.85;2.33;;;;;;;;;;4165044;34;20122;-68
2022/06/02 07:18:39;;;;;;;4.50;2.47;;;;;;;;;;4176312;34;20129;-69
2022/06/02 07:21:20;;;;;;;5.40;2.83;;;;;;;;;;4164583;34;20523;-68
2022/06/02 07:23:45;;;;;;;3.00;2.50;;;;;;;;;;4177358;34;20579;-69
2022/06/02 07:26:39;;;;;;;2.40;2.20;;;;;;;;;;4177689;34;20119;-68
2022/06/02 07:29:23;;;;;;;3.03;2.50;;;;;;;;;;4177809;34;20107;-68
2022/06/02 07:32:18;;;;;;;3.08;2.78;;;;;;;;;;4176287;34;20286;-69
2022/06/02 07:34:47;;;;;;;4.68;2.40;;;;;;;;;;4176146;34;20206;-69
2022/06/02 07:37:19;;;;;;;6.15;2.80;;;;;;;;;;4177910;34;20214;-69
2022/06/02 07:40:21;;;;;;;3.17;2.83;;;;;;;;;;4175912;34;20093;-69
2022/06/02 07:43:03;;;;;;;9.55;2.47;;;;;;;;;;4175926;34;20141;-69
2022/06/02 07:45:36;;;;;;;15.30;3.08;;;;;;;;;;4164643;34;20635;-69
2022/06/02 07:48:22;;;;;;;3.53;2.60;;;;;;;;;;4177272;34;20090;-69
2022/06/02 07:51:22;;;;;;;8.43;3.00;;;;;;;;;;4177260;34;20098;-69
2022/06/02 07:54:07;;;;;;;3.58;2.58;;;;;;;;;;4177296;34;20797;-68
2022/06/02 07:56:39;;;;;;;;;;;;;;;;;;4177664;34;20601;-69
2022/06/02 07:59:20;;;;;;;3.35;3.05;;;;;;;;;;4164554;34;19985;-68
2022/06/02 08:02:19;;;;;;;2.20;1.90;;;;;;;;;;4177156;34;20118;-67
2022/06/02 08:04:53;;;;;;;3.97;2.37;;;;;;;;;;4158509;34;20111;-68
2022/06/02 08:07:32;;;;;;;6.50;2.53;;;;;;;;;;4177137;34;20508;-67
2022/06/02 08:10:06;;;;;;;6.68;3.50;;;;;;;;;;4175926;34;20553;-67
2022/06/02 08:13:00;;;;;;;5.15;2.55;;;;;;;;;;4163893;34;20561;-68
2022/06/02 08:15:44;;;;;;;2.30;2.05;;;;;;;;;;4173822;34;20106;-67
2022/06/02 08:18:22;;;;;;;3.45;2.50;;;;;;;;;;4177197;34;20535;-67
2022/06/02 08:20:55;;;;;;;6.32;2.50;;;;;;;;;;4175935;34;20121;-67
2022/06/02 08:23:23;;;;;;;2.72;2.25;;;;;;;;;;4177269;34;20126;-67
2022/06/02 08:26:05;;;;;;;3.03;2.53;;;;;;;;;;4164358;34;20206;-67
2022/06/02 08:28:34;;;;;;;2.67;2.45;;;;;;;;;;4164318;34;20094;-68
2022/06/02 08:31:15;;;;;;;2.20;2.00;;;;;;;;;;4176874;34;20137;-68
2022/06/02 08:33:40;;;;;;;2.90;2.30;;;;;;;;;;4175247;34;20221;-68
2022/06/02 08:36:06;;;;;;;2.67;2.30;;;;;;;;;;4176747;34;20195;-68
2022/06/02 08:38:41;;;;;;;2.90;2.45;;;;;;;;;;4176661;34;20114;-68
2022/06/02 08:41:32;;;;;;;2.30;2.10;;;;;;;;;;4176728;34;20098;-68
2022/06/02 08:44:15;;;;;;;2.60;2.28;;;;;;;;;;4176756;34;20109;-69
2022/06/02 08:47:02;;;;;;;4.45;2.80;;;;;;;;;;4175268;34;20193;-67
2022/06/02 08:49:49;;;;;;;3.50;2.42;;;;;;;;;;4176681;34;20102;-67
2022/06/02 08:52:53;;;;;;;4.97;2.20;;;;;;;;;;4176764;34;20114;-68
2022/06/02 08:55:43;;;;;;;3.33;2.80;;;;;;;;;;4176756;34;20106;-66
2022/06/02 08:58:31;;;;;;;2.87;2.58;;;;;;;;;;4176799;34;20726;-67
2022/06/02 09:01:34;;;;;;;5.20;2.90;;;;;;;;;;4176499;34;20122;-67
2022/06/02 09:04:03;;;;;;;3.30;2.58;;;;;;;;;;4160714;34;20126;-67
2022/06/02 09:06:56;;;;;;;4.57;2.55;;;;;;;;;;4176667;34;20105;-67
2022/06/02 09:09:47;;;;;;;6.20;2.50;;;;;;;;;;4163845;34;20479;-67
2022/06/02 09:12:18;;;;;;;2.62;2.15;;;;;;;;;;4176280;34;20120;-67
2022/06/02 09:15:21;;;;;;;3.35;2.47;;;;;;;;;;4176324;34;20212;-67
2022/06/02 09:17:56;;;;;;;7.72;2.55;;;;;;;;;;4176562;34;20507;-66
2022/06/02 09:20:44;;;;;;;4.30;2.40;;;;;;;;;;4176198;34;20107;-67
2022/06/02 09:23:11;;;;;;;2.70;2.05;;;;;;;;;;4175028;34;20118;-67
2022/06/02 09:26:03;;;;;;;5.37;2.47;;;;;;;;;;4176395;34;20130;-67
2022/06/02 09:28:44;;;;;;;1.77;1.67;;;;;;;;;;4165695;34;20102;-67
2022/06/02 09:31:34;;;;;;;3.85;2.60;;;;;;;;;;4178382;34;20207;-67
2022/06/02 09:34:22;;;;;;;3.25;2.50;;;;;;;;;;4178386;34;20119;-67
2022/06/02 09:36:54;;;;;;;2.62;2.40;;;;;;;;;;4178242;34;20190;-67
2022/06/02 09:39:35;;;;;;;2.67;2.12;;;;;;;;;;4178332;34;20118;-67
2022/06/02 09:42:17;;;;;;;3.15;2.83;;;;;;;;;;4178457;34;20141;-67
2022/06/02 09:45:09;;;;;;;3.17;2.50;;;;;;;;;;4176789;34;20219;-67
2022/06/02 09:48:13;;;;;;;3.55;2.50;;;;;;;;;;4178328;34;20109;-67
2022/06/02 09:51:00;;;;;;;2.92;2.60;;;;;;;;;;4178380;34;20145;-67
2022/06/02 09:53:52;;;;;;;5.32;2.60;;;;;;;;;;4178353;34;20106;-67
2022/06/02 09:56:49;;;;;;;2.92;2.62;;;;;;;;;;4177871;34;20091;-67
2022/06/02 09:59:33;;;;;;;3.80;2.33;;;;;;;;;;4178293;34;20122;-66
2022/06/02 10:02:10;;;;;;;4.05;2.50;;;;;;;;;;4178273;34;20117;-66
2022/06/02 10:04:57;;;;;;;2.62;2.15;;;;;;;;;;4177072;34;20141;-67
2022/06/02 10:07:33;;;;;;;2.83;2.60;;;;;;;;;;4178355;34;20095;-67
2022/06/02 10:10:09;;;;;;;6.70;2.50;;;;;;;;;;4176677;34;20230;-66
2022/06/02 10:13:00;;;;;;;2.67;2.33;;;;;;;;;;4178030;34;20110;-67
2022/06/02 10:15:46;;;;;;;2.87;2.37;;;;;;;;;;4178131;34;20161;-66
2022/06/02 10:18:30;;;;;;;3.40;2.30;;;;;;;;;;4177983;34;20534;-66
2022/06/02 10:21:06;;;;;;;2.45;2.25;;;;;;;;;;4165409;34;20126;-67
2022/06/02 10:23:54;;;;;;;2.80;2.50;;;;;;;;;;4176511;34;20586;-67
2022/06/02 10:26:41;;;;;;;2.55;2.10;;;;;;;;;;4177940;34;20527;-67
2022/06/02 10:29:21;;;;;;;2.47;2.28;;;;;;;;;;4165065;34;20190;-67
2022/06/02 10:32:18;;;;;;;3.05;2.33;;;;;;;;;;4165262;34;20145;-67
2022/06/02 10:34:46;;;;;;;3.58;2.40;;;;;;;;;;4177664;34;20189;-67
2022/06/02 10:37:33;;;;;;;5.80;2.35;;;;;;;;;;4177414;34;20205;-67
2022/06/02 10:40:50;;;;;;;2.40;2.20;;;;;;;;;;4178017;34;20126;-66
2022/06/02 10:43:53;;;;;;;2.40;2.20;;;;;;;;;;4165370;34;20129;-67
2022/06/02 10:46:50;;;;;;;2.30;2.05;;;;;;;;;;4178020;34;20592;-66
2022/06/02 10:49:43;;;;;;;3.30;2.22;;;;;;;;;;4177574;34;20129;-66
2022/06/02 10:52:39;;;;;;;5.12;2.40;;;;;;;;;;4177717;34;20126;-67
2022/06/02 10:55:26;;;;;;;2.78;2.20;;;;;;;;;;4177801;34;20110;-66
2022/06/02 10:58:37;;;;;;;6.97;3.10;;;;;;;;;;4164830;34;20222;-66
2022/06/02 11:01:57;;;;;;;2.90;2.25;;;;;;;;;;4177789;34;20543;-67
2022/06/02 11:04:50;;;;;;;6.15;2.67;;;;;;;;;;4176520;34;20112;-66
2022/06/02 11:07:32;;;;;;;7.43;2.53;;;;;;;;;;4177868;34;20209;-66
2022/06/02 11:10:23;;;;;;;3.70;2.20;;;;;;;;;;4165076;34;20126;-66
2022/06/02 11:14:02;;;;;;;3.25;2.40;;;;;;;;;;4177781;34;20107;-66
2022/06/02 11:16:34;;;;;;;2.65;2.20;;;;;;;;;;4148013;34;20252;-66
2022/06/02 11:19:34;;;;;;;3.55;2.53;;;;;;;;;;4148124;34;20134;-66
2022/06/02 11:22:23;;;;;;;2.55;2.35;;;;;;;;;;4176734;34;20231;-67
2022/06/02 11:25:10;;;;;;;2.72;2.30;;;;;;;;;;4177350;34;20106;-66
2022/06/02 11:28:24;;;;;;;3.40;2.17;;;;;;;;;;4177440;34;20091;-67
2022/06/02 11:31:16;;;;;;;4.18;2.40;;;;;;;;;;4170970;34;20121;-66
2022/06/02 11:33:45;;;;;;;3.03;2.72;;;;;;;;;;4177377;34;20109;-67
2022/06/02 11:36:13;;;;;;;3.33;2.92;;;;;;;;;;4177484;34;20098;-67
2022/06/02 11:38:54;;;;;;;4.85;2.90;;;;;;;;;;4164427;34;20217;-66
2022/06/02 11:41:23;;;;;;;4.85;2.22;;;;;;;;;;4164558;34;20109;-66
2022/06/02 11:44:13;;;;;;;4.43;2.83;;;;;;;;;;4177674;34;20097;-66
2022/06/02 11:46:45;;;;;;;3.15;2.45;;;;;;;;;;4176927;34;20181;-66
2022/06/02 11:49:10;;;;;;;3.17;2.53;;;;;;;;;;4177240;34;20133;-65
2022/06/02 11:52:01;;;;;;;2.37;2.12;;;;;;;;;;4177450;34;20530;-66
2022/06/02 11:54:39;;;;;;;5.93;2.87;;;;;;;;;;4164536;34;20558;-66
2022/06/02 11:57:36;;;;;;;2.60;2.17;;;;;;;;;;4177141;34;20109;-66
2022/06/02 12:00:06;;;;;;;3.97;2.35;;;;;;;;;;4177315;34;20125;-67
2022/06/02 12:02:38;;;;;;;7.72;2.72;;;;;;;;;;4177289;34;20126;-67
2022/06/02 12:05:29;;;;;;;3.47;2.55;;;;;;;;;;4164644;34;20111;-67
2022/06/02 12:08:42;;;;;;;9.45;2.87;;;;;;;;;;4177050;34;20114;-67
2022/06/02 12:11:20;;;;;;;4.37;2.67;;;;;;;;;;4170060;34;20153;-66
2022/06/02 12:13:48;;;;;;;5.18;3.00;;;;;;;;;;4177009;34;20108;-66
2022/06/02 12:16:31;;;;;;;6.40;2.87;;;;;;;;;;4176817;34;20118;-66
2022/06/02 12:19:07;;;;;;;2.83;2.50;;;;;;;;;;4175924;34;20583;-66
2022/06/02 12:22:01;;;;;;;5.10;2.53;;;;;;;;;;4177062;34;20121;-67
2022/06/02 12:25:22;;;;;;;3.28;2.15;;;;;;;;;;4177261;34;20189;-67
2022/06/02 12:28:22;;;;;;;10.25;2.53;;;;;;;;;;4161260;34;20127;-68
2022/06/02 12:30:48;;;;;;;3.78;2.30;;;;;;;;;;4176876;34;20205;-67
2022/06/02 12:33:37;;;;;;;5.03;2.85;;;;;;;;;;4176747;34;20533;-65
2022/06/02 12:36:35;;;;;;;2.78;2.53;;;;;;;;;;4176617;34;20094;-65
2022/06/02 12:39:29;;;;;;;7.12;3.97;;;;;;;;;;4168357;34;20195;-66
2022/06/02 12:42:16;;;;;;;2.75;2.00;;;;;;;;;;4175369;34;20094;-66
2022/06/02 12:45:13;;;;;;;4.28;2.30;;;;;;;;;;4176914;34;20113;-67
2022/06/02 12:48:14;;;;;;;3.28;2.37;;;;;;;;;;4176964;34;20197;-66
2022/06/02 12:51:00;;;;;;;7.43;3.95;;;;;;;;;;4161538;34;20122;-66
2022/06/02 12:53:38;;;;;;;20.85;10.27;;;;;;;;;;4176675;34;20102;-66
2022/06/02 12:56:28;;;;;;;16.80;7.10;;;;;;;;;;4176398;34;20510;-66
2022/06/02 12:59:12;;;;;;;7.82;4.57;;;;;;;;;;4176018;34;20122;-66
2022/06/02 13:02:13;;;;;;;15.80;9.18;;;;;;;;;;4178622;34;20117;-66
2022/06/02 13:05:07;;;;;;;12.90;4.72;;;;;;;;;;4176369;34;20220;-66
2022/06/02 13:08:11;;;;;;;6.65;2.97;;;;;;;;;;4178789;34;20166;-66
2022/06/02 13:11:02;;;;;;;5.25;3.10;;;;;;;;;;4163780;34;20446;-66
2022/06/02 13:13:48;;;;;;;2.87;2.40;;;;;;;;;;4178698;34;20534;-66
2022/06/02 13:16:19;;;;;;;3.30;2.20;;;;;;;;;;4178669;34;20478;-66
2022/06/02 13:19:08;;;;;;;3.00;2.20;;;;;;;;;;4178725;34;20129;-66
2022/06/02 13:21:59;;;;;;;3.15;2.30;;;;;;;;;;4178504;34;20513;-66
2022/06/02 13:24:47;;;;;;;5.25;3.00;;;;;;;;;;4178483;34;20138;-65
2022/06/02 13:27:31;;;;;;;4.37;2.17;;;;;;;;;;4178388;34;20213;-65
2022/06/02 13:30:35;;;;;;;4.45;2.55;;;;;;;;;;4178395;34;20197;-65
2022/06/02 13:33:22;;;;;;;5.57;2.55;;;;;;;;;;4178634;34;20627;-66
2022/06/02 13:36:10;;;;;;;2.40;2.03;;;;;;;;;;4165754;34;20564;-65
2022/06/02 13:38:48;;;;;;;4.45;2.40;;;;;;;;;;4176913;34;20205;-67
2022/06/02 13:41:29;;;;;;;5.60;2.62;;;;;;;;;;4165518;34;20242;-66
2022/06/02 13:44:06;;;;;;;5.80;2.55;;;;;;;;;;4178303;34;20130;-65
2022/06/02 13:46:54;;;;;;;2.65;2.45;;;;;;;;;;4165324;34;20554;-65
2022/06/02 13:49:51;;;;;;;9.27;2.33;;;;;;;;;;4178342;34;20555;-66
2022/06/02 13:52:54;;;;;;;3.40;3.10;;;;;;;;;;4178088;34;20544;-65
2022/06/02 13:58:36;;;;;;;;;;;;;;;;;;4178603;34;20210;-65
2022/06/02 14:01:28;;;;;;;4.10;3.30;;;;;;;;;;4178105;34;20001;-66
2022/06/02 14:04:21;;;;;;;7.37;5.07;;;;;;;;;;4178242;34;20130;-65
2022/06/02 14:07:05;;;;;;;16.92;8.55;;;;;;;;;;4176671;34;20515;-65
2022/06/02 14:10:22;;;;;;;11.23;5.80;;;;;;;;;;4176867;34;20110;-67
2022/06/02 14:13:10;;;;;;;5.97;3.28;;;;;;;;;;4162079;34;20612;-69
2022/06/02 14:16:00;;;;;;;5.85;2.58;;;;;;;;;;4177952;34;20189;-66
2022/06/02 14:18:39;;;;;;;9.43;2.80;;;;;;;;;;4165238;34;20149;-64
2022/06/02 14:21:23;;;;;;;3.75;2.42;;;;;;;;;;4178005;34;20115;-64
2022/06/02 14:23:55;;;;;;;6.10;2.65;;;;;;;;;;4178312;34;20110;-67
2022/06/02 14:26:35;;;;;;;7.18;2.45;;;;;;;;;;4177984;34;20202;-67
2022/06/02 14:29:10;;;;;;;5.00;3.10;;;;;;;;;;4165230;34;20455;-66
2022/06/02 14:31:36;;;;;;;;;;;;;;;;;;4178437;34;20137;-66
2022/06/02 14:34:07;;;;;;;5.25;2.08;;;;;;;;;;4177965;34;20375;-66
2022/06/02 14:36:40;;;;;;;9.57;2.45;;;;;;;;;;4165261;34;20186;-67
2022/06/02 14:39:14;;;;;;;4.18;2.28;;;;;;;;;;4177849;34;20448;-66
2022/06/02 14:41:59;;;;;;;5.20;2.53;;;;;;;;;;4177747;34;20110;-67
2022/06/02 14:44:53;;;;;;;2.45;2.22;;;;;;;;;;4165158;34;20502;-66
2022/06/02 14:47:39;;;;;;;3.00;2.40;;;;;;;;;;4177843;34;20118;-66
2022/06/02 14:50:10;;;;;;;4.80;2.72;;;;;;;;;;4176454;34;20117;-67
2022/06/02 14:53:11;;;;;;;6.50;3.42;;;;;;;;;;4165209;34;20229;-67
2022/06/02 14:55:58;;;;;;;6.50;3.35;;;;;;;;;;4163675;34;20114;-67
2022/06/02 14:58:55;;;;;;;3.33;2.45;;;;;;;;;;4164869;34;20186;-67
2022/06/02 15:01:30;;;;;;;3.15;2.25;;;;;;;;;;4177598;34;20114;-65
2022/06/02 15:04:15;;;;;;;2.37;2.17;;;;;;;;;;4165210;34;20447;-67
2022/06/02 15:07:15;;;;;;;2.90;2.30;;;;;;;;;;4177679;34;20197;-67
2022/06/02 15:09:51;;;;;;;4.93;2.40;;;;;;;;;;4177785;34;20204;-67
2022/06/02 15:12:42;;;;;;;2.95;2.70;;;;;;;;;;4177491;34;20098;-67
2022/06/02 15:15:11;;;;;;;3.05;2.50;;;;;;;;;;4177445;34;20117;-67
2022/06/02 15:17:39;;;;;;;8.02;3.15;;;;;;;;;;4177651;34;20127;-67
2022/06/02 15:20:21;;;;;;;3.22;2.42;;;;;;;;;;4177647;34;20197;-66
2022/06/02 15:23:02;;;;;;;4.90;2.55;;;;;;;;;;4176785;34;20121;-67
2022/06/02 15:25:37;;;;;;;4.43;2.47;;;;;;;;;;4177415;34;20440;-66
2022/06/02 15:28:20;;;;;;;6.97;2.53;;;;;;;;;;4177695;34;20118;-66
2022/06/02 15:31:05;;;;;;;7.30;2.80;;;;;;;;;;4177323;34;20121;-65
2022/06/02 15:33:51;;;;;;;;;;;;;;;;;;4176466;34;20145;-65
2022/06/02 15:36:50;;;;;;;6.60;2.70;;;;;;;;;;4177248;34;19970;-65
2022/06/02 15:39:50;;;;;;;2.53;2.33;;;;;;;;;;4177081;34;20228;-65
2022/06/02 15:42:44;;;;;;;6.50;2.92;;;;;;;;;;4164627;34;20111;-65
2022/06/02 15:45:10;;;;;;;5.90;2.65;;;;;;;;;;4177212;34;20130;-66
2022/06/02 15:47:39;;;;;;;10.20;3.22;;;;;;;;;;4164580;34;20129;-68
2022/06/02 15:50:49;;;;;;;8.52;2.58;;;;;;;;;;4252922;28;20233;-66
2022/06/02 16:05:58;;;;;;;;;;;;;;;;;;;;;
2022/06/02 16:30:09;;;;;;;15.15;4.70;;;;;;;;;;4224986;33;20097;-67
2022/06/02 16:33:13;;;;;;;7.37;4.28;;;;;;;;;;4180531;34;20442;-65
2022/06/02 17:02:04;;;;;;;14.45;6.80;;;;;;;;;;4146046;34;20183;-67
2022/06/02 17:16:20;;;;;;;13.35;5.07;;;;;;;;;;922728;29;21329;-66
2022/06/02 17:22:36;;;;;;;17.87;4.30;;;;;;;;;;4040733;35;20172;-65
2022/06/02 17:26:20;;;;;;;;;;;;;;;;;;;;;
2022/06/02 17:38:16;;;;;;;;;;;;;;;;;;;;;
2022/06/02 17:42:17;;;;;;;9.00;4.18;;;;;;;;;;4145122;34;20134;-64
2022/06/02 17:49:58;;;;;;;17.98;5.60;;;;;;;;;;4115403;34;20210;-65
2022/06/02 17:53:35;;;;;;;;;;;;;;;;;;;;;
2022/06/02 18:01:31;;;;;;;16.75;7.00;;;;;;;;;;4074121;35;20100;-67
2022/06/02 18:05:21;;;;;;;12.15;5.60;;;;;;;;;;4077574;34;20132;-67
2022/06/02 18:08:41;;;;;;;19.77;7.13;;;;;;;;;;4069273;35;20128;-65
2022/06/02 18:12:37;;;;;;;20.60;8.70;;;;;;;;;;4101540;34;20116;-66
2022/06/02 18:16:19;;;;;;;14.25;6.20;;;;;;;;;;4085969;35;20132;-67
2022/06/02 18:20:07;;;;;;;19.48;7.85;;;;;;;;;;4134543;34;20130;-66
2022/06/02 18:23:55;;;;;;;35.05;21.02;;;;;;;;;;4133969;34;20559;-66
2022/06/02 18:38:33;;;;;;;13.20;6.85;;;;;;;;;;4117911;34;20579;-66
2022/06/02 19:32:59;;;;;;;11.65;4.07;;;;;;;;;;4154906;34;20086;-66
2022/06/02 19:50:46;;;;;;;15.80;9.05;;;;;;;;;;4135711;34;20536;-67
2022/06/02 20:33:36;;;;;;;15.90;6.47;;;;;;;;;;2778831;33;20527;-65
2022/06/02 20:37:01;;;;;;;15.15;6.25;;;;;;;;;;4042665;35;20614;-66
2022/06/02 20:45:48;;;;;;;;;;;;;;;;;;;;;
2022/06/02 20:49:05;;;;;;;24.60;6.65;;;;;;;;;;4098055;34;20132;-66
2022/06/02 21:21:39;;;;;;;5.07;4.15;;;;;;;;;;3376966;28;20117;-65
2022/06/02 21:24:10;;;;;;;8.20;4.50;;;;;;;;;;4220065;34;20501;-65
2022/06/02 21:26:54;;;;;;;7.93;4.62;;;;;;;;;;4220126;34;20113;-64